Time;durP1;ratioP1;P1;durP2;ratioP2;P2;SDS_P1;SDS_P2;PMS_P1;PMS_P2;Temp;Humidity;BMP_temperature;BMP_pressure;BME280_temperature;BME280_humidity;BME280_pressure;Samples;Min_cycle;Max_cycle;Signal;HPM_P1;HPM_P2
2022/01/26 00:00:41;;;;;;;58.70;15.82;;;;;;;5.27;91.45;101101.34;5061836;28;20093;-74
2022/01/26 00:05:54;;;;;;;58.25;15.05;;;;;;;5.45;91.17;101110.38;5062336;28;20048;-74
2022/01/26 00:08:24;;;;;;;44.22;14.77;;;;;;;5.44;91.35;101109.53;5063917;28;20424;-74
2022/01/26 00:10:49;;;;;;;47.95;12.50;;;;;;;5.35;91.42;101098.13;5066105;28;20024;-74
2022/01/26 00:13:15;;;;;;;51.65;12.23;;;;;;;5.44;91.74;101118.94;5066084;28;20032;-74
2022/01/26 00:15:40;;;;;;;41.17;11.70;;;;;;;5.39;91.47;101093.06;5065997;28;20285;-74
2022/01/26 00:18:05;;;;;;;36.92;13.50;;;;;;;5.53;91.22;101113.13;5066124;28;20104;-74
2022/01/26 00:20:39;;;;;;;50.03;13.10;;;;;;;5.49;91.40;101090.72;5066141;28;20029;-74
2022/01/26 00:23:32;;;;;;;36.92;11.77;;;;;;;5.43;91.60;101087.16;5065937;28;20024;-74
2022/01/26 00:39:28;;;;;;;53.10;13.93;;;;;;;5.45;91.43;101075.19;5003860;28;20090;-75
2022/01/26 00:41:57;;;;;;;41.78;10.20;;;;;;;5.43;91.44;101070.84;4987744;28;20109;-74
2022/01/26 00:44:30;;;;;;;46.05;10.43;;;;;;;5.44;91.35;101068.31;5003425;28;20027;-75
2022/01/26 00:46:55;;;;;;;49.15;11.82;;;;;;;5.46;91.13;101064.03;5003241;28;20038;-76
2022/01/26 00:49:21;;;;;;;49.63;10.25;;;;;;;5.27;91.27;101044.72;5003719;28;20041;-75
2022/01/26 00:51:46;;;;;;;31.55;10.50;;;;;;;5.35;91.08;101047.50;5003511;28;20054;-75
2022/01/26 00:54:12;;;;;;;32.17;8.23;;;;;;;5.37;91.20;101055.25;5003228;28;20039;-75
2022/01/26 00:56:38;;;;;;;39.35;10.18;;;;;;;5.39;91.26;101062.19;5003358;28;20060;-76
2022/01/26 00:59:04;;;;;;;33.70;7.55;;;;;;;5.40;90.88;101061.34;5003148;28;20030;-75
2022/01/26 01:01:31;;;;;;;43.42;8.55;;;;;;;5.41;91.03;101054.50;5003253;28;20327;-76
2022/01/26 01:03:57;;;;;;;50.83;10.52;;;;;;;5.43;90.91;101055.41;5003165;28;20038;-75
2022/01/26 01:06:26;;;;;;;32.35;6.82;;;;;;;5.30;90.83;101047.38;4986634;28;20026;-73
2022/01/26 01:08:54;;;;;;;35.03;6.72;;;;;;;5.16;90.94;101026.44;5003227;28;20038;-74
2022/01/26 01:11:20;;;;;;;34.03;8.60;;;;;;;5.24;91.00;101048.94;4986955;28;20026;-76
2022/01/26 01:13:47;;;;;;;30.23;6.85;;;;;;;5.17;91.02;101035.94;5037253;28;20067;-75
2022/01/26 01:16:18;;;;;;;31.17;7.80;;;;;;;5.20;90.88;101027.41;5065046;28;20028;-75
2022/01/26 01:24:16;;;;;;;41.42;9.13;;;;;;;5.24;90.86;101028.34;5065224;28;20469;-75
2022/01/26 01:34:10;;;;;;;30.77;8.50;;;;;;;5.25;90.35;101005.22;5064773;28;20021;-75
2022/01/26 01:36:39;;;;;;;34.05;7.50;;;;;;;5.28;90.37;101005.28;5064516;28;20052;-74
2022/01/26 01:39:07;;;;;;;34.05;7.32;;;;;;;5.35;90.16;101008.00;5064236;28;20024;-75
2022/01/26 01:41:36;;;;;;;16.88;5.30;;;;;;;5.25;90.16;100984.63;5064443;28;20420;-74
2022/01/26 01:44:04;;;;;;;28.13;6.35;;;;;;;5.33;90.12;101007.97;5064466;28;20212;-74
2022/01/26 01:46:29;;;;;;;34.53;8.27;;;;;;;5.23;90.04;100994.00;5064378;28;20085;-73
2022/01/26 01:48:55;;;;;;;31.27;7.13;;;;;;;5.31;89.85;101001.91;5064163;28;20028;-74
2022/01/26 01:51:27;;;;;;;20.17;5.90;;;;;;;5.28;90.17;101000.13;5046331;28;20107;-74
2022/01/26 01:53:52;;;;;;;;;;;;;;;5.30;90.00;101000.16;5064889;28;20033;-74
2022/01/26 01:56:20;;;;;;;28.38;5.55;;;;;;;5.24;89.89;100987.16;5064561;28;19955;-74
2022/01/26 01:58:46;;;;;;;19.65;5.25;;;;;;;5.26;89.76;100983.78;5064061;28;20036;-74
2022/01/26 02:01:11;;;;;;;22.17;5.07;;;;;;;5.26;89.56;100977.75;5063910;28;20033;-74
2022/01/26 02:03:36;;;;;;;27.90;6.05;;;;;;;5.17;89.83;100971.56;5064126;28;20025;-74
2022/01/26 02:06:02;;;;;;;27.38;5.22;;;;;;;5.12;89.68;100950.00;5046068;28;20021;-74
2022/01/26 02:08:27;;;;;;;18.80;5.47;;;;;;;5.18;90.00;100968.16;5045769;28;20104;-74
2022/01/26 02:10:53;;;;;;;23.38;5.07;;;;;;;5.17;89.89;100950.09;5064016;28;20048;-74
2022/01/26 02:15:54;;;;;;;16.33;4.60;;;;;;;5.12;89.72;100925.97;5063657;28;20098;-74
2022/01/26 02:21:40;;;;;;;22.70;5.60;;;;;;;5.10;89.51;100932.78;5063917;28;20025;-73
2022/01/26 02:54:42;;;;;;;15.88;4.57;;;;;;;5.15;88.71;100870.28;5063322;28;20036;-74
2022/01/26 03:02:10;;;;;;;20.90;4.88;;;;;;;5.10;88.29;100855.59;5063041;28;20040;-74
2022/01/26 03:04:44;;;;;;;26.45;6.97;;;;;;;5.13;88.35;100860.78;5063222;28;20017;-74
2022/01/26 03:09:41;;;;;;;19.77;4.43;;;;;;;5.11;87.95;100837.59;5063245;28;20029;-74
2022/01/26 03:12:08;;;;;;;34.47;6.40;;;;;;;5.11;88.02;100829.88;5063169;28;20029;-74
2022/01/26 03:14:49;;;;;;;30.75;6.00;;;;;;;5.02;87.96;100816.78;5063079;28;20025;-74
2022/01/26 03:17:43;;;;;;;17.23;5.25;;;;;;;5.11;88.00;100826.41;5062788;28;20104;-75
2022/01/26 03:20:12;;;;;;;28.88;5.80;;;;;;;5.10;87.95;100840.97;5063070;28;20024;-74
2022/01/26 03:28:20;;;;;;;24.90;5.57;;;;;;;5.09;87.88;100831.53;5063025;28;20070;-75
2022/01/26 03:31:07;;;;;;;30.33;6.03;;;;;;;4.95;87.91;100814.09;5062839;28;20044;-74
2022/01/26 03:36:13;;;;;;;17.10;4.07;;;;;;;5.02;88.27;100822.81;5062806;28;20084;-74
2022/01/26 03:38:45;;;;;;;23.00;4.93;;;;;;;4.95;88.61;100798.66;5062607;28;20033;-74
2022/01/26 03:43:39;;;;;;;24.52;6.28;;;;;;;5.05;88.49;100792.00;5064790;28;20017;-74
2022/01/26 03:46:05;;;;;;;30.30;5.35;;;;;;;5.00;88.55;100791.03;5048591;28;20039;-74
2022/01/26 03:48:30;;;;;;;14.98;4.05;;;;;;;4.99;88.54;100796.13;5066377;28;20023;-74
2022/01/26 03:50:56;;;;;;;17.30;4.43;;;;;;;4.94;88.68;100772.88;5066866;28;20512;-76
2022/01/26 03:53:21;;;;;;;34.22;6.95;;;;;;;5.02;88.73;100796.19;5066767;28;20295;-74
2022/01/26 03:55:47;;;;;;;20.58;5.05;;;;;;;4.98;88.79;100768.69;5066876;28;20435;-74
2022/01/26 03:58:12;;;;;;;20.58;5.13;;;;;;;5.02;88.73;100779.06;5066260;28;20036;-74
2022/01/26 04:00:37;;;;;;;28.30;7.30;;;;;;;5.05;88.65;100783.38;5048383;28;20035;-74
2022/01/26 04:03:03;;;;;;;33.35;6.53;;;;;;;5.05;88.83;100765.38;5066445;28;20017;-74
2022/01/26 04:05:29;;;;;;;18.98;4.90;;;;;;;5.02;88.46;100742.16;5048601;28;20413;-74
2022/01/26 04:08:00;;;;;;;29.77;6.53;;;;;;;5.10;88.58;100753.47;5066350;28;20074;-74
2022/01/26 04:10:40;;;;;;;25.27;5.15;;;;;;;5.09;88.53;100746.59;5066562;28;20020;-75
2022/01/26 04:13:05;;;;;;;33.00;7.43;;;;;;;5.07;88.75;100732.81;5066022;28;20400;-75
2022/01/26 04:15:34;;;;;;;25.15;6.82;;;;;;;4.92;88.40;100708.53;5066008;28;20021;-75
2022/01/26 04:18:01;;;;;;;17.10;5.82;;;;;;;5.08;88.65;100732.84;5066022;28;20024;-74
2022/01/26 04:20:31;;;;;;;24.00;6.18;;;;;;;5.06;88.55;100721.66;5066141;28;20025;-75
2022/01/26 04:23:09;;;;;;;39.92;7.88;;;;;;;5.10;88.62;100722.59;5065945;28;20021;-75
2022/01/26 04:25:36;;;;;;;28.80;8.02;;;;;;;5.08;88.61;100709.69;5047880;28;20080;-74
2022/01/26 04:28:06;;;;;;;32.22;8.18;;;;;;;5.09;88.62;100708.00;5047723;28;20025;-74
2022/01/26 04:30:32;;;;;;;24.77;5.53;;;;;;;5.09;88.58;100697.72;5047816;28;20036;-75
2022/01/26 04:33:03;;;;;;;28.40;5.35;;;;;;;4.95;88.39;100677.72;5047801;28;20021;-74
2022/01/26 04:35:28;;;;;;;31.02;8.18;;;;;;;4.96;88.70;100678.59;5065820;28;20032;-74
2022/01/26 04:38:12;;;;;;;36.30;8.43;;;;;;;4.92;88.68;100672.50;5065519;28;20061;-75
2022/01/26 04:40:44;;;;;;;30.20;7.00;;;;;;;5.02;89.01;100686.41;5065956;28;20052;-74
2022/01/26 04:43:18;;;;;;;36.67;7.35;;;;;;;5.06;88.91;100677.06;5065748;28;20020;-74
2022/01/26 04:45:44;;;;;;;42.63;8.10;;;;;;;4.99;88.76;100668.34;5064776;28;20031;-74
2022/01/26 04:48:09;;;;;;;27.75;5.32;;;;;;;5.03;88.87;100674.44;5065278;28;20025;-74
2022/01/26 04:50:35;;;;;;;28.58;7.13;;;;;;;5.00;89.14;100672.66;5065350;28;20021;-74
2022/01/26 04:53:00;;;;;;;38.50;7.65;;;;;;;4.99;89.42;100665.78;5065378;28;20017;-74
2022/01/26 04:55:25;;;;;;;36.90;6.10;;;;;;;4.93;89.37;100661.41;5064598;28;20021;-74
2022/01/26 04:57:51;;;;;;;20.27;4.43;;;;;;;5.02;89.29;100664.94;5047340;28;20048;-74
2022/01/26 05:00:17;;;;;;;29.20;4.95;;;;;;;5.03;89.44;100664.13;5047101;28;20078;-74
2022/01/26 05:02:42;;;;;;;16.20;4.53;;;;;;;5.06;89.16;100666.78;5065357;28;20405;-75
2022/01/26 05:05:08;;;;;;;29.67;6.93;;;;;;;4.98;89.33;100646.03;5047008;28;20021;-74
2022/01/26 05:07:33;;;;;;;29.77;6.40;;;;;;;5.07;89.37;100661.66;5065194;28;20032;-74
2022/01/26 05:09:58;;;;;;;30.48;7.07;;;;;;;5.08;89.59;100662.50;5065236;28;20035;-74
2022/01/26 05:12:24;;;;;;;30.83;7.38;;;;;;;5.06;89.58;100659.88;5047121;28;20477;-75
2022/01/26 05:14:50;;;;;;;23.38;5.55;;;;;;;5.10;89.64;100660.81;5046757;28;20441;-73
2022/01/26 05:17:19;;;;;;;41.33;9.75;;;;;;;5.08;89.85;100659.91;5045607;28;20040;-76
2022/01/26 05:19:45;;;;;;;37.75;5.60;;;;;;;5.07;89.77;100661.66;5064991;28;20021;-75
2022/01/26 05:22:11;;;;;;;37.42;7.43;;;;;;;4.98;89.86;100640.03;5046786;28;20051;-75
2022/01/26 05:24:36;;;;;;;30.13;6.88;;;;;;;4.93;89.68;100634.78;5064919;28;20341;-74
2022/01/26 05:27:02;;;;;;;36.13;8.85;;;;;;;5.11;89.67;100649.72;5064728;28;20033;-75
2022/01/26 05:29:27;;;;;;;42.28;8.80;;;;;;;5.03;89.63;100644.41;5064644;28;20098;-76
2022/01/26 05:31:52;;;;;;;33.92;7.93;;;;;;;5.11;89.62;100657.44;5046561;28;20020;-71
2022/01/26 05:34:18;;;;;;;41.88;8.02;;;;;;;5.01;89.72;100627.22;5064715;28;20346;-77
2022/01/26 05:36:43;;;;;;;46.03;10.25;;;;;;;5.18;89.56;100648.09;5046575;28;20049;-74
2022/01/26 05:39:08;;;;;;;37.05;7.40;;;;;;;5.18;89.46;100641.25;5046540;28;20052;-75
2022/01/26 05:41:34;;;;;;;52.33;8.75;;;;;;;5.13;89.47;100634.28;5064356;28;20570;-74
2022/01/26 05:44:00;;;;;;;41.70;9.98;;;;;;;5.11;89.14;100623.09;5064728;28;20027;-75
2022/01/26 05:46:33;;;;;;;42.35;10.63;;;;;;;5.19;89.27;100639.56;5064178;28;20046;-73
2022/01/26 05:48:59;;;;;;;39.60;7.97;;;;;;;5.20;89.39;100629.28;5064612;28;20021;-73
2022/01/26 05:51:26;;;;;;;42.70;7.95;;;;;;;5.20;89.08;100621.56;5064299;28;20062;-73
2022/01/26 05:53:52;;;;;;;41.33;9.35;;;;;;;5.19;89.35;100617.22;5064274;28;20229;-68
2022/01/26 05:56:17;;;;;;;53.70;10.93;;;;;;;5.18;89.23;100623.22;5064348;28;20047;-81
2022/01/26 05:58:42;;;;;;;45.00;9.82;;;;;;;5.13;89.03;100606.84;5064040;28;20017;-72
2022/01/26 06:01:08;;;;;;;39.08;8.07;;;;;;;5.19;89.22;100606.09;5064013;28;20028;-73
2022/01/26 06:03:33;;;;;;;53.65;10.20;;;;;;;5.21;89.21;100617.25;5046279;28;20013;-73
2022/01/26 06:05:59;;;;;;;34.95;8.48;;;;;;;5.22;89.36;100606.13;5063818;28;20111;-73
2022/01/26 06:08:25;;;;;;;56.10;12.45;;;;;;;5.26;89.21;100609.59;5064295;28;20082;-72
2022/01/26 06:10:51;;;;;;;47.67;8.18;;;;;;;5.27;88.97;100599.34;5064146;28;20025;-70
2022/01/26 06:13:18;;;;;;;66.53;12.00;;;;;;;5.30;89.13;100603.69;5046001;28;20042;-71
2022/01/26 06:15:44;;;;;;;46.75;9.35;;;;;;;5.29;89.00;100586.50;5063702;28;20043;-71
2022/01/26 06:18:10;;;;;;;52.40;12.80;;;;;;;5.30;88.89;100583.09;5063983;28;20057;-72
2022/01/26 06:20:36;;;;;;;52.92;10.57;;;;;;;5.21;88.91;100581.22;5063834;28;20027;-71
2022/01/26 06:23:03;;;;;;;42.10;10.30;;;;;;;5.27;88.90;100586.47;5063542;28;20025;-71
2022/01/26 06:25:28;;;;;;;39.35;9.70;;;;;;;5.14;89.25;100577.69;5063614;28;20084;-73
2022/01/26 06:27:57;;;;;;;48.08;7.82;;;;;;;5.26;89.25;100582.16;5063598;28;20035;-73
2022/01/26 06:30:24;;;;;;;40.65;10.07;;;;;;;5.22;89.30;100577.81;5063383;28;20037;-73
2022/01/26 06:32:50;;;;;;;32.03;6.25;;;;;;;5.12;89.27;100569.06;5063467;28;20024;-70
2022/01/26 06:35:16;;;;;;;44.22;9.80;;;;;;;5.27;89.51;100580.47;5063595;28;20496;-76
2022/01/26 06:37:41;;;;;;;35.35;8.57;;;;;;;5.20;89.56;100564.94;5063278;28;20053;-76
2022/01/26 06:40:07;;;;;;;44.00;10.10;;;;;;;5.23;89.25;100576.97;5063610;28;20457;-77
2022/01/26 06:42:40;;;;;;;56.63;11.48;;;;;;;5.16;89.26;100557.97;5063438;28;20080;-76
2022/01/26 06:45:16;;;;;;;38.20;7.70;;;;;;;5.27;89.23;100571.03;5045335;28;20013;-76
2022/01/26 06:50:13;;;;;;;33.05;9.00;;;;;;;5.25;89.21;100580.44;5063506;28;20096;-77
2022/01/26 06:52:38;;;;;;;44.78;9.82;;;;;;;5.29;89.34;100582.22;5063302;28;20029;-77
2022/01/26 06:55:04;;;;;;;56.40;9.65;;;;;;;5.22;89.40;100557.22;5063152;28;20412;-78
2022/01/26 06:57:30;;;;;;;53.88;10.27;;;;;;;5.28;89.34;100572.78;5044606;28;20037;-73
2022/01/26 06:59:55;;;;;;;52.83;11.57;;;;;;;5.28;89.52;100551.31;5063694;28;20079;-75
2022/01/26 07:02:21;;;;;;;45.53;10.20;;;;;;;5.29;89.58;100564.19;5063439;28;20025;-77
2022/01/26 07:04:46;;;;;;;34.97;9.30;;;;;;;5.30;89.49;100557.34;5044840;28;20064;-76
2022/01/26 07:07:11;;;;;;;39.13;8.75;;;;;;;5.31;89.49;100556.50;5045106;28;20056;-77
2022/01/26 07:09:37;;;;;;;31.35;8.32;;;;;;;5.30;89.79;100552.19;5062602;28;20047;-74
2022/01/26 07:12:02;;;;;;;25.52;7.35;;;;;;;5.29;89.61;100560.75;5063176;28;20024;-79
2022/01/26 07:20:35;;;;;;;56.67;11.35;;;;;;;5.23;89.57;100538.34;5066532;28;20032;-78
2022/01/26 07:22:41;;;;;;;58.30;10.48;;;;;;;5.19;89.55;100526.28;5066427;28;20059;-76
2022/01/26 07:25:06;;;;;;;43.10;10.75;;;;;;;5.27;89.82;100549.56;5066505;28;20013;-76
2022/01/26 07:27:33;;;;;;;51.45;8.88;;;;;;;5.21;89.79;100548.63;5066234;28;20504;-74
2022/01/26 07:30:00;;;;;;;45.38;8.52;;;;;;;5.25;89.80;100561.56;5048496;28;20052;-76
2022/01/26 07:32:28;;;;;;;61.83;12.43;;;;;;;5.16;89.82;100532.25;5066330;28;20029;-77
2022/01/26 07:34:53;;;;;;;43.08;10.10;;;;;;;5.20;89.83;100541.75;5048371;28;20099;-78
2022/01/26 07:37:21;;;;;;;29.13;6.85;;;;;;;5.15;90.08;100530.53;5066213;28;20490;-77
2022/01/26 07:40:00;;;;;;;27.05;6.53;;;;;;;5.16;90.05;100521.94;5066420;28;20052;-77
2022/01/26 07:42:25;;;;;;;47.17;10.00;;;;;;;5.13;90.41;100506.44;5066361;28;20112;-78
2022/01/26 07:44:51;;;;;;;29.10;4.32;;;;;;;4.93;90.37;100471.00;5066487;28;20037;-79
2022/01/26 07:47:16;;;;;;;46.65;10.27;;;;;;;5.12;90.71;100509.00;5048459;28;20032;-78
2022/01/26 07:49:42;;;;;;;25.02;7.70;;;;;;;5.13;90.79;100485.03;5066296;28;20092;-78
2022/01/26 07:52:07;;;;;;;25.00;7.32;;;;;;;5.03;90.84;100478.84;5047931;28;20051;-80
2022/01/26 07:54:32;;;;;;;50.47;10.77;;;;;;;5.16;90.90;100503.94;5047875;28;20028;-79
2022/01/26 07:56:58;;;;;;;41.90;9.25;;;;;;;5.17;90.99;100485.09;5065751;28;20032;-79
2022/01/26 07:59:23;;;;;;;35.35;6.75;;;;;;;5.19;91.04;100480.81;5047929;28;20081;-79
2022/01/26 08:01:49;;;;;;;46.25;9.05;;;;;;;5.17;90.71;100485.09;5065761;28;20025;-79
2022/01/26 08:04:14;;;;;;;51.28;11.40;;;;;;;5.05;90.92;100457.44;5066214;28;20127;-79
2022/01/26 08:06:40;;;;;;;51.78;11.52;;;;;;;5.05;90.65;100446.28;5065945;28;20093;-79
2022/01/26 08:09:05;;;;;;;55.88;10.00;;;;;;;5.10;90.75;100478.09;5065693;28;20047;-79
2022/01/26 08:11:31;;;;;;;28.77;6.57;;;;;;;5.03;90.66;100482.28;5065540;28;20021;-79
2022/01/26 08:13:58;;;;;;;34.88;7.57;;;;;;;5.04;90.84;100491.75;5047704;28;20028;-79
2022/01/26 08:16:23;;;;;;;48.53;11.70;;;;;;;5.01;90.98;100480.53;5047031;28;20035;-79
2022/01/26 08:18:49;;;;;;;56.10;11.65;;;;;;;5.18;90.95;100504.81;5065300;28;20025;-79
2022/01/26 08:21:15;;;;;;;43.15;8.82;;;;;;;5.19;90.98;100505.69;5065406;28;20032;-79
2022/01/26 08:23:43;;;;;;;53.83;9.93;;;;;;;5.19;91.02;100480.81;5065394;28;20103;-79
2022/01/26 08:26:09;;;;;;;46.60;9.45;;;;;;;5.23;90.79;100486.00;5065666;28;20484;-80
2022/01/26 08:28:41;;;;;;;45.85;10.13;;;;;;;5.19;90.82;100479.97;5047422;28;20063;-80
2022/01/26 08:31:06;;;;;;;40.20;9.23;;;;;;;5.14;90.95;100456.72;5063673;28;20087;-80
2022/01/26 08:33:32;;;;;;;41.85;8.70;;;;;;;5.26;90.80;100455.16;5065083;28;20461;-79
2022/01/26 08:35:57;;;;;;;24.48;7.20;;;;;;;5.27;90.98;100464.63;5051298;28;20049;-80
2022/01/26 08:38:23;;;;;;;27.98;6.10;;;;;;;5.27;91.05;100459.47;5072974;28;20017;-78
2022/01/26 08:40:49;;;;;;;34.92;10.15;;;;;;;5.34;90.82;100463.84;5068807;28;20039;-80
2022/01/26 08:43:15;;;;;;;29.38;7.82;;;;;;;5.28;90.85;100445.75;5067797;28;20070;-78
2022/01/26 08:45:41;;;;;;;47.28;8.48;;;;;;;5.20;90.63;100428.50;5064841;28;20017;-80
2022/01/26 08:48:06;;;;;;;39.10;8.40;;;;;;;5.40;90.60;100453.63;5065036;28;20018;-80
2022/01/26 08:50:33;;;;;;;38.67;9.60;;;;;;;5.42;90.81;100441.66;5065450;28;20570;-80
2022/01/26 08:52:58;;;;;;;24.45;5.88;;;;;;;5.48;90.32;100440.88;5064845;28;20029;-79
2022/01/26 08:55:24;;;;;;;41.95;8.68;;;;;;;5.49;90.40;100437.47;5046794;28;20530;-80
2022/01/26 08:57:49;;;;;;;16.30;4.63;;;;;;;5.45;90.30;100421.09;5064436;28;20025;-78
2022/01/26 09:00:17;;;;;;;35.55;7.82;;;;;;;5.59;90.10;100430.72;5064676;28;20025;-79
2022/01/26 09:02:43;;;;;;;30.58;7.00;;;;;;;5.62;90.13;100428.19;5046639;28;20048;-79
2022/01/26 09:05:09;;;;;;;35.05;6.55;;;;;;;5.67;89.71;100408.47;5064882;28;20049;-78
2022/01/26 09:07:35;;;;;;;37.75;6.80;;;;;;;5.66;89.29;100367.25;5064833;28;20111;-75
2022/01/26 09:10:02;;;;;;;26.00;5.50;;;;;;;5.78;88.75;100394.88;5064968;28;20029;-81
2022/01/26 09:12:29;;;;;;;37.75;6.93;;;;;;;5.82;88.24;100394.94;5047068;28;20029;-80
2022/01/26 09:14:55;;;;;;;17.80;5.55;;;;;;;5.88;87.58;100372.66;5065027;28;20033;-78
2022/01/26 09:17:27;;;;;;;42.92;6.60;;;;;;;5.93;86.82;100373.53;5064259;28;20047;-79
2022/01/26 09:19:53;;;;;;;59.83;7.85;;;;;;;5.87;86.47;100353.75;5064364;28;20029;-78
2022/01/26 09:22:19;;;;;;;46.45;12.32;;;;;;;5.95;86.34;100359.84;5064416;28;20261;-79
2022/01/26 09:24:45;;;;;;;24.23;3.78;;;;;;;5.89;85.96;100341.75;5064677;28;20100;-79
2022/01/26 09:27:15;;;;;;;47.80;8.73;;;;;;;5.88;85.80;100332.28;5064424;28;20193;-78
2022/01/26 09:29:41;;;;;;;37.85;6.05;;;;;;;6.09;85.54;100335.94;5064497;28;20060;-79
2022/01/26 09:32:07;;;;;;;38.58;7.93;;;;;;;6.19;85.15;100332.59;5064303;28;20101;-78
2022/01/26 09:34:38;;;;;;;23.15;5.97;;;;;;;6.47;85.46;100325.94;5046259;28;20052;-75
2022/01/26 09:37:06;;;;;;;35.47;8.10;;;;;;;6.84;84.08;100318.41;5064179;28;20055;-71
2022/01/26 09:39:32;;;;;;;39.22;7.28;;;;;;;7.10;82.83;100337.47;5064156;28;20028;-75
2022/01/26 09:41:59;;;;;;;24.85;4.72;;;;;;;7.09;81.93;100330.59;5063721;28;20052;-78
2022/01/26 09:44:24;;;;;;;40.90;5.88;;;;;;;6.78;80.81;100308.94;5063808;28;20029;-77
2022/01/26 09:46:50;;;;;;;35.78;6.13;;;;;;;6.66;80.87;100327.78;5063722;28;20496;-76
2022/01/26 09:49:17;;;;;;;30.08;4.82;;;;;;;6.48;81.02;100314.75;5063627;28;20032;-78
2022/01/26 09:51:47;;;;;;;41.78;7.13;;;;;;;6.49;81.44;100319.94;5045777;28;20035;-76
2022/01/26 09:54:16;;;;;;;35.70;7.55;;;;;;;6.48;81.42;100305.31;5063718;28;20100;-78
2022/01/26 09:56:43;;;;;;;43.67;6.15;;;;;;;6.43;81.29;100305.28;5063752;28;20103;-76
2022/01/26 09:59:09;;;;;;;33.65;6.38;;;;;;;6.38;81.17;100298.34;5063640;28;20158;-76
2022/01/26 10:01:50;;;;;;;36.50;6.68;;;;;;;6.18;81.18;100281.88;5063405;28;20031;-76
2022/01/26 10:04:21;;;;;;;23.45;6.00;;;;;;;6.18;81.27;100289.63;5064042;28;20027;-76
2022/01/26 10:15:37;;;;;;;36.70;6.95;;;;;;;7.11;77.92;100292.75;5063212;28;20163;-75
2022/01/26 10:18:10;;;;;;;23.38;4.35;;;;;;;6.96;77.95;100281.50;5063088;28;20096;-79
2022/01/26 10:20:43;;;;;;;38.67;6.05;;;;;;;6.85;77.67;100296.06;5063182;28;20024;-78
2022/01/26 10:23:13;;;;;;;32.05;6.43;;;;;;;6.65;78.08;100287.34;5063023;28;20043;-77
2022/01/26 10:25:41;;;;;;;30.48;5.63;;;;;;;6.56;77.98;100283.03;5063285;28;20116;-76
2022/01/26 10:28:09;;;;;;;30.75;6.72;;;;;;;6.56;77.96;100300.19;5044902;28;20020;-78
2022/01/26 10:30:35;;;;;;;51.40;7.53;;;;;;;6.49;77.88;100298.41;5044489;28;20025;-79
2022/01/26 10:33:08;;;;;;;42.90;7.05;;;;;;;6.55;78.13;100303.66;5063128;28;20075;-78
2022/01/26 10:35:33;;;;;;;31.70;6.78;;;;;;;6.55;77.81;100301.91;5044740;28;20025;-78
2022/01/26 10:37:59;;;;;;;41.53;6.30;;;;;;;6.47;77.69;100280.34;5062720;28;20021;-79
2022/01/26 10:40:27;;;;;;;30.67;4.30;;;;;;;6.33;77.94;100298.31;5044705;28;20017;-77
2022/01/26 10:43:06;;;;;;;28.48;5.80;;;;;;;6.25;78.20;100299.97;5062866;28;20064;-77
2022/01/26 10:48:26;;;;;;;37.47;5.88;;;;;;;6.07;78.69;100312.72;5062874;28;20029;-78
2022/01/26 10:53:44;;;;;;;16.70;4.38;;;;;;;5.94;78.39;100310.88;5062188;28;20059;-79
2022/01/26 10:56:10;;;;;;;39.05;7.15;;;;;;;5.75;78.40;100284.06;5044015;28;20023;-78
2022/01/26 10:58:36;;;;;;;37.45;8.02;;;;;;;5.86;78.74;100315.97;5062231;28;20151;-79
2022/01/26 11:01:03;;;;;;;57.38;8.15;;;;;;;5.81;78.56;100321.03;5044007;28;20013;-79
2022/01/26 11:03:28;;;;;;;40.33;6.47;;;;;;;5.83;78.77;100316.78;5044401;28;20043;-76
2022/01/26 11:05:54;;;;;;;33.33;6.90;;;;;;;6.01;78.98;100304.03;5062648;28;20035;-77
2022/01/26 11:08:22;;;;;;;17.23;4.80;;;;;;;6.54;77.97;100312.22;5062625;28;20330;-75
2022/01/26 11:10:47;;;;;;;33.80;5.82;;;;;;;6.90;75.92;100313.28;5062841;28;20519;-76
2022/01/26 11:13:28;;;;;;;23.70;4.25;;;;;;;7.35;74.68;100333.28;5062508;28;20040;-77
2022/01/26 11:16:15;;;;;;;32.92;6.53;;;;;;;7.78;72.39;100314.44;5062414;28;20057;-77
2022/01/26 11:18:58;;;;;;;33.08;7.32;;;;;;;8.05;71.60;100324.84;5062497;28;20021;-77
2022/01/26 11:21:34;;;;;;;32.22;5.70;;;;;;;8.36;70.39;100303.25;5062594;28;20029;-76
2022/01/26 11:24:23;;;;;;;22.33;4.32;;;;;;;8.81;68.50;100311.00;5044756;28;20016;-77
2022/01/26 11:27:01;;;;;;;26.75;5.93;;;;;;;9.13;66.46;100317.78;5062646;28;20021;-77
2022/01/26 11:29:32;;;;;;;27.48;5.28;;;;;;;9.50;65.28;100303.81;5062668;28;20029;-77
2022/01/26 11:32:06;;;;;;;36.83;7.45;;;;;;;10.00;63.90;100310.41;5062320;28;20021;-77
2022/01/26 11:34:33;;;;;;;39.42;6.15;;;;;;;10.41;62.92;100306.56;5062136;28;20017;-78
2022/01/26 11:37:00;;;;;;;33.50;6.70;;;;;;;10.72;60.67;100302.84;5062008;28;20049;-79
2022/01/26 11:45:34;;;;;;;28.50;6.82;;;;;;;9.25;61.32;100298.72;5030545;28;20033;-78
2022/01/26 11:48:07;;;;;;;26.02;4.95;;;;;;;8.41;63.56;100299.81;5055869;28;20075;-79
2022/01/26 11:50:33;;;;;;;;;;;;;;;7.98;64.83;100313.63;5062924;28;20084;-79
2022/01/26 11:53:10;;;;;;;39.67;6.18;;;;;;;7.56;66.27;100311.81;5062315;28;19909;-78
2022/01/26 11:55:38;;;;;;;41.15;6.68;;;;;;;7.30;67.31;100314.34;5062076;28;20029;-78
2022/01/26 11:58:19;;;;;;;40.53;6.85;;;;;;;7.09;68.11;100313.41;5061795;28;20036;-78
2022/01/26 12:00:57;;;;;;;23.98;4.70;;;;;;;6.94;68.67;100319.34;5061500;28;20021;-79
2022/01/26 12:03:27;;;;;;;34.33;7.20;;;;;;;6.81;69.10;100324.44;5061567;28;20025;-73
2022/01/26 12:05:57;;;;;;;35.67;4.43;;;;;;;6.71;69.61;100319.22;5047415;28;20079;-77
2022/01/26 12:08:34;;;;;;;29.27;5.55;;;;;;;6.60;70.28;100319.16;5065529;28;20414;-78
2022/01/26 12:11:01;;;;;;;31.58;5.65;;;;;;;6.52;70.54;100337.13;5065666;28;20028;-76
2022/01/26 12:13:28;;;;;;;28.20;5.18;;;;;;;6.48;70.80;100314.75;5065564;28;20032;-76
2022/01/26 12:15:58;;;;;;;31.25;6.85;;;;;;;6.49;70.63;100314.75;5065526;28;20056;-74
2022/01/26 12:18:32;;;;;;;20.83;5.00;;;;;;;6.37;70.74;100300.09;5065698;28;20031;-73
2022/01/26 12:35:40;;;;;;;22.90;4.05;;;;;;;6.34;69.39;100258.81;5065707;28;20037;-73
2022/01/26 12:38:10;;;;;;;27.67;4.93;;;;;;;6.36;68.43;100263.97;5064575;28;20140;-74
2022/01/26 12:43:34;;;;;;;15.07;3.20;;;;;;;6.13;68.86;100291.31;5065244;28;20108;-72
2022/01/26 12:46:01;;;;;;;31.05;5.47;;;;;;;6.09;69.09;100289.53;5064779;28;20105;-73
2022/01/26 12:48:28;;;;;;;17.63;2.85;;;;;;;6.04;69.50;100266.31;5064778;28;20028;-74
2022/01/26 12:50:57;;;;;;;38.33;6.30;;;;;;;5.92;69.89;100277.38;5065000;28;20029;-74
2022/01/26 12:53:25;;;;;;;27.70;4.25;;;;;;;5.98;70.09;100292.00;5064804;28;20043;-74
2022/01/26 12:55:56;;;;;;;23.20;4.03;;;;;;;5.94;70.32;100269.66;5065002;28;20025;-74
2022/01/26 12:58:33;;;;;;;31.48;5.30;;;;;;;6.00;70.49;100292.00;5064854;28;20025;-73
2022/01/26 13:01:01;;;;;;;26.75;4.68;;;;;;;5.99;70.35;100308.34;5064598;28;20063;-73
2022/01/26 13:03:30;;;;;;;35.90;6.07;;;;;;;5.91;70.41;100288.50;5047101;28;20021;-74
2022/01/26 13:06:05;;;;;;;33.58;6.35;;;;;;;5.95;70.54;100305.72;5046873;28;20017;-73
2022/01/26 13:08:53;;;;;;;23.85;4.10;;;;;;;6.00;70.43;100315.22;5064795;28;20453;-74
2022/01/26 13:11:25;;;;;;;27.08;4.65;;;;;;;5.91;70.65;100306.53;5065081;28;20079;-73
2022/01/26 13:14:12;;;;;;;26.75;6.43;;;;;;;5.90;71.04;100309.97;5064595;28;20025;-73
2022/01/26 13:16:40;;;;;;;31.35;6.13;;;;;;;5.89;70.98;100289.34;5063555;28;20484;-74
2022/01/26 13:22:27;;;;;;;33.53;4.85;;;;;;;5.84;71.67;100312.50;5064952;28;20036;-72
2022/01/26 13:25:01;;;;;;;30.13;5.13;;;;;;;5.86;71.51;100302.19;5064394;28;20032;-73
2022/01/26 13:30:49;;;;;;;31.17;5.13;;;;;;;5.73;71.28;100283.19;5064790;28;20454;-73
2022/01/26 13:49:50;;;;;;;29.80;6.47;;;;;;;5.53;72.55;100279.56;5064129;28;20052;-74
2022/01/26 13:52:53;;;;;;;16.92;4.85;;;;;;;5.57;72.80;100267.59;5063853;28;20036;-73
2022/01/26 13:58:17;;;;;;;32.78;5.75;;;;;;;5.56;72.98;100282.16;5063828;28;20035;-74
2022/01/26 14:00:41;;;;;;;24.90;5.13;;;;;;;5.50;72.97;100281.22;5063214;28;20040;-74
2022/01/26 14:03:09;;;;;;;38.42;5.85;;;;;;;5.44;73.16;100280.34;5063580;28;20078;-74
2022/01/26 14:05:34;;;;;;;37.50;8.15;;;;;;;5.41;73.22;100287.16;5063489;28;20017;-74